sensor_id;sensor_type;location;lat;lon;timestamp;noise_LAeq;noise_LA_min;noise_LA_max;noise_LA01;noise_LA95
66463;Laerm;56827;52.178;4.500;2023-04-03T00:00:01;34.69;31.47;45.82;;
66463;Laerm;56827;52.178;4.500;2023-04-03T00:00:11;33.08;31.54;37.14;;
66463;Laerm;56827;52.178;4.500;2023-04-03T00:00:22;33.75;31.80;37.85;;
66463;Laerm;56827;52.178;4.500;2023-04-03T00:00:32;33.14;31.13;36.06;;
66463;Laerm;56827;52.178;4.500;2023-04-03T00:00:42;32.71;30.43;34.18;;
66463;Laerm;56827;52.178;4.500;2023-04-03T00:00:52;32.60;30.64;34.83;;
66463;Laerm;56827;52.178;4.500;2023-04-03T00:01:03;33.16;30.96;38.28;;
66463;Laerm;56827;52.178;4.500;2023-04-03T00:01:13;33.28;31.38;35.81;;
66463;Laerm;56827;52.178;4.500;2023-04-03T00:01:24;32.85;31.23;34.61;;
66463;Laerm;56827;52.178;4.500;2023-04-03T00:01:34;32.98;31.32;34.87;;
66463;Laerm;56827;52.178;4.500;2023-04-03T00:01:45;33.27;31.18;35.41;;
66463;Laerm;56827;52.178;4.500;2023-04-03T00:01:55;38.30;32.05;50.02;;
66463;Laerm;56827;52.178;4.500;2023-04-03T00:02:05;34.00;31.88;35.75;;
66463;Laerm;56827;52.178;4.500;2023-04-03T00:02:16;34.20;32.24;38.97;;
66463;Laerm;56827;52.178;4.500;2023-04-03T00:02:26;33.81;32.03;36.45;;
66463;Laerm;56827;52.178;4.500;2023-04-03T00:02:36;33.59;31.87;35.32;;
66463;Laerm;56827;52.178;4.500;2023-04-03T00:02:46;33.93;31.98;35.82;;
66463;Laerm;56827;52.178;4.500;2023-04-03T00:02:57;35.01;32.35;37.34;;
66463;Laerm;56827;52.178;4.500;2023-04-03T00:03:07;38.20;34.68;44.53;;
66463;Laerm;56827;52.178;4.500;2023-04-03T00:03:18;39.80;36.03;46.38;;
66463;Laerm;56827;52.178;4.500;2023-04-03T00:03:28;41.73;36.14;48.76;;
66463;Laerm;56827;52.178;4.500;2023-04-03T00:03:39;42.57;36.39;49.93;;
66463;Laerm;56827;52.178;4.500;2023-04-03T00:03:51;43.48;36.37;49.17;;
66463;Laerm;56827;52.178;4.500;2023-04-03T00:04:01;41.46;35.31;48.59;;
66463;Laerm;56827;52.178;4.500;2023-04-03T00:04:12;36.52;34.00;39.54;;
66463;Laerm;56827;52.178;4.500;2023-04-03T00:04:22;35.12;32.59;38.20;;
66463;Laerm;56827;52.178;4.500;2023-04-03T00:04:32;33.87;32.15;40.65;;
66463;Laerm;56827;52.178;4.500;2023-04-03T00:04:42;33.59;31.55;35.57;;
66463;Laerm;56827;52.178;4.500;2023-04-03T00:04:52;33.78;32.13;35.60;;
66463;Laerm;56827;52.178;4.500;2023-04-03T00:05:03;33.83;31.14;36.16;;
66463;Laerm;56827;52.178;4.500;2023-04-03T00:05:14;33.38;31.20;35.56;;
66463;Laerm;56827;52.178;4.500;2023-04-03T00:05:24;34.48;31.80;37.88;;
66463;Laerm;56827;52.178;4.500;2023-04-03T00:05:35;37.88;32.90;56.17;;
66463;Laerm;56827;52.178;4.500;2023-04-03T00:05:46;35.03;31.90;41.63;;
66463;Laerm;56827;52.178;4.500;2023-04-03T00:05:56;33.32;30.85;35.93;;
66463;Laerm;56827;52.178;4.500;2023-04-03T00:06:07;32.74;31.06;34.57;;
66463;Laerm;56827;52.178;4.500;2023-04-03T00:06:18;32.78;31.20;34.32;;
66463;Laerm;56827;52.178;4.500;2023-04-03T00:06:28;33.77;31.74;36.20;;
66463;Laerm;56827;52.178;4.500;2023-04-03T00:06:39;33.95;31.63;37.42;;
66463;Laerm;56827;52.178;4.500;2023-04-03T00:06:49;33.39;31.72;41.26;;
66463;Laerm;56827;52.178;4.500;2023-04-03T00:06:59;33.17;31.16;37.33;;
66463;Laerm;56827;52.178;4.500;2023-04-03T00:07:10;33.21;30.72;35.63;;
66463;Laerm;56827;52.178;4.500;2023-04-03T00:07:22;33.14;31.09;35.78;;
66463;Laerm;56827;52.178;4.500;2023-04-03T00:07:32;33.24;31.38;34.94;;
66463;Laerm;56827;52.178;4.500;2023-04-03T00:07:42;33.38;31.26;35.32;;
66463;Laerm;56827;52.178;4.500;2023-04-03T00:07:52;32.96;31.27;36.14;;
66463;Laerm;56827;52.178;4.500;2023-04-03T00:08:03;32.65;30.84;34.16;;
66463;Laerm;56827;52.178;4.500;2023-04-03T00:08:14;32.63;30.78;34.64;;
66463;Laerm;56827;52.178;4.500;2023-04-03T00:08:25;33.23;30.98;35.43;;
66463;Laerm;56827;52.178;4.500;2023-04-03T00:08:35;32.36;30.72;34.39;;
66463;Laerm;56827;52.178;4.500;2023-04-03T00:08:46;32.52;31.05;34.34;;
66463;Laerm;56827;52.178;4.500;2023-04-03T00:08:56;32.43;30.74;34.10;;
66463;Laerm;56827;52.178;4.500;2023-04-03T00:09:06;32.97;30.79;35.37;;
66463;Laerm;56827;52.178;4.500;2023-04-03T00:09:16;33.87;31.46;36.22;;
66463;Laerm;56827;52.178;4.500;2023-04-03T00:09:26;33.23;31.37;35.39;;
66463;Laerm;56827;52.178;4.500;2023-04-03T00:09:37;32.70;30.87;34.61;;
66463;Laerm;56827;52.178;4.500;2023-04-03T00:09:47;33.06;31.11;34.93;;
66463;Laerm;56827;52.178;4.500;2023-04-03T00:09:57;32.64;30.82;35.53;;
66463;Laerm;56827;52.178;4.500;2023-04-03T00:10:08;32.73;31.00;35.24;;
66463;Laerm;56827;52.178;4.500;2023-04-03T00:10:18;32.95;31.17;38.03;;
66463;Laerm;56827;52.178;4.500;2023-04-03T00:10:28;32.54;30.94;34.31;;
66463;Laerm;56827;52.178;4.500;2023-04-03T00:10:39;33.06;31.04;35.77;;
66463;Laerm;56827;52.178;4.500;2023-04-03T00:10:49;33.23;31.22;35.43;;
66463;Laerm;56827;52.178;4.500;2023-04-03T00:10:59;33.67;31.96;35.53;;
66463;Laerm;56827;52.178;4.500;2023-04-03T00:11:10;33.47;31.92;35.41;;
66463;Laerm;56827;52.178;4.500;2023-04-03T00:11:20;33.54;31.51;35.18;;
66463;Laerm;56827;52.178;4.500;2023-04-03T00:11:30;33.77;31.89;37.22;;
66463;Laerm;56827;52.178;4.500;2023-04-03T00:11:41;33.35;31.50;35.30;;
66463;Laerm;56827;52.178;4.500;2023-04-03T00:11:51;33.53;31.43;35.85;;
66463;Laerm;56827;52.178;4.500;2023-04-03T00:12:01;33.17;31.56;34.81;;
66463;Laerm;56827;52.178;4.500;2023-04-03T00:12:11;34.74;31.73;39.18;;
66463;Laerm;56827;52.178;4.500;2023-04-03T00:12:22;33.43;31.49;36.34;;
66463;Laerm;56827;52.178;4.500;2023-04-03T00:12:32;33.70;31.32;36.30;;
66463;Laerm;56827;52.178;4.500;2023-04-03T00:12:42;33.41;31.44;35.30;;
66463;Laerm;56827;52.178;4.500;2023-04-03T00:12:52;33.19;31.43;35.52;;
66463;Laerm;56827;52.178;4.500;2023-04-03T00:13:03;33.90;31.97;35.79;;
66463;Laerm;56827;52.178;4.500;2023-04-03T00:13:14;33.24;31.34;35.39;;
66463;Laerm;56827;52.178;4.500;2023-04-03T00:13:25;33.19;30.99;35.20;;
66463;Laerm;56827;52.178;4.500;2023-04-03T00:13:35;32.93;31.31;34.81;;
66463;Laerm;56827;52.178;4.500;2023-04-03T00:13:45;32.63;30.96;34.17;;
66463;Laerm;56827;52.178;4.500;2023-04-03T00:13:56;33.37;31.19;35.91;;
66463;Laerm;56827;52.178;4.500;2023-04-03T00:14:06;33.56;31.77;36.45;;
66463;Laerm;56827;52.178;4.500;2023-04-03T00:14:16;34.12;32.05;36.76;;
66463;Laerm;56827;52.178;4.500;2023-04-03T00:14:26;34.05;31.53;36.13;;
66463;Laerm;56827;52.178;4.500;2023-04-03T00:14:37;33.57;31.62;35.28;;
66463;Laerm;56827;52.178;4.500;2023-04-03T00:14:47;33.74;32.11;35.86;;
66463;Laerm;56827;52.178;4.500;2023-04-03T00:14:58;33.32;31.64;35.23;;
66463;Laerm;56827;52.178;4.500;2023-04-03T00:15:08;33.38;31.34;35.27;;
66463;Laerm;56827;52.178;4.500;2023-04-03T00:15:18;32.97;31.03;34.65;;
66463;Laerm;56827;52.178;4.500;2023-04-03T00:15:28;33.28;31.53;35.58;;
66463;Laerm;56827;52.178;4.500;2023-04-03T00:15:39;32.65;31.16;35.56;;
66463;Laerm;56827;52.178;4.500;2023-04-03T00:15:49;32.92;31.09;34.60;;
66463;Laerm;56827;52.178;4.500;2023-04-03T00:16:00;32.38;30.73;34.09;;
66463;Laerm;56827;52.178;4.500;2023-04-03T00:16:10;32.75;31.03;34.59;;
66463;Laerm;56827;52.178;4.500;2023-04-03T00:16:20;32.48;30.52;34.22;;
66463;Laerm;56827;52.178;4.500;2023-04-03T00:16:31;32.42;30.70;34.34;;
66463;Laerm;56827;52.178;4.500;2023-04-03T00:16:41;32.62;31.13;34.29;;
66463;Laerm;56827;52.178;4.500;2023-04-03T00:16:51;32.86;31.07;34.71;;
66463;Laerm;56827;52.178;4.500;2023-04-03T00:17:01;32.65;30.84;34.88;;
66463;Laerm;56827;52.178;4.500;2023-04-03T00:17:12;33.20;31.51;35.63;;
66463;Laerm;56827;52.178;4.500;2023-04-03T00:17:22;34.37;32.26;37.59;;
66463;Laerm;56827;52.178;4.500;2023-04-03T00:17:32;35.04;31.82;37.65;;
66463;Laerm;56827;52.178;4.500;2023-04-03T00:17:42;35.15;32.31;37.47;;
66463;Laerm;56827;52.178;4.500;2023-04-03T00:17:53;34.61;31.85;37.29;;
66463;Laerm;56827;52.178;4.500;2023-04-03T00:18:03;35.87;32.91;37.92;;
66463;Laerm;56827;52.178;4.500;2023-04-03T00:18:13;40.63;33.63;48.38;;
66463;Laerm;56827;52.178;4.500;2023-04-03T00:18:24;42.70;37.08;47.55;;
66463;Laerm;56827;52.178;4.500;2023-04-03T00:18:34;47.81;41.64;52.92;;
66463;Laerm;56827;52.178;4.500;2023-04-03T00:18:45;55.27;44.92;62.42;;
66463;Laerm;56827;52.178;4.500;2023-04-03T00:18:55;56.45;48.42;61.70;;
66463;Laerm;56827;52.178;4.500;2023-04-03T00:19:05;53.90;46.70;58.26;;
66463;Laerm;56827;52.178;4.500;2023-04-03T00:19:15;49.41;39.50;57.66;;
66463;Laerm;56827;52.178;4.500;2023-04-03T00:19:25;43.52;39.74;49.58;;
66463;Laerm;56827;52.178;4.500;2023-04-03T00:19:36;40.04;33.68;45.98;;
66463;Laerm;56827;52.178;4.500;2023-04-03T00:19:46;34.09;31.42;37.30;;
66463;Laerm;56827;52.178;4.500;2023-04-03T00:19:56;33.34;31.72;35.14;;
66463;Laerm;56827;52.178;4.500;2023-04-03T00:20:07;34.04;31.97;37.42;;
66463;Laerm;56827;52.178;4.500;2023-04-03T00:20:17;34.48;32.23;37.29;;
66463;Laerm;56827;52.178;4.500;2023-04-03T00:20:27;33.59;31.35;39.82;;
66463;Laerm;56827;52.178;4.500;2023-04-03T00:20:38;33.07;31.12;38.01;;
66463;Laerm;56827;52.178;4.500;2023-04-03T00:20:48;32.18;30.78;33.95;;
66463;Laerm;56827;52.178;4.500;2023-04-03T00:20:58;34.10;30.66;52.23;;
66463;Laerm;56827;52.178;4.500;2023-04-03T00:21:10;32.56;30.49;37.92;;
66463;Laerm;56827;52.178;4.500;2023-04-03T00:21:21;32.62;30.87;34.40;;
66463;Laerm;56827;52.178;4.500;2023-04-03T00:21:32;33.20;30.80;45.06;;
66463;Laerm;56827;52.178;4.500;2023-04-03T00:21:42;32.83;31.08;37.41;;
66463;Laerm;56827;52.178;4.500;2023-04-03T00:21:52;33.22;31.26;36.82;;
66463;Laerm;56827;52.178;4.500;2023-04-03T00:22:03;32.73;30.91;39.50;;
66463;Laerm;56827;52.178;4.500;2023-04-03T00:22:13;32.42;30.83;33.94;;
66463;Laerm;56827;52.178;4.500;2023-04-03T00:22:24;33.06;31.02;36.18;;
66463;Laerm;56827;52.178;4.500;2023-04-03T00:22:36;33.22;31.10;36.04;;
66463;Laerm;56827;52.178;4.500;2023-04-03T00:22:46;33.57;31.71;36.35;;
66463;Laerm;56827;52.178;4.500;2023-04-03T00:22:56;33.41;31.12;37.03;;
66463;Laerm;56827;52.178;4.500;2023-04-03T00:23:07;32.89;31.03;35.07;;
66463;Laerm;56827;52.178;4.500;2023-04-03T00:23:17;32.08;30.19;33.59;;
66463;Laerm;56827;52.178;4.500;2023-04-03T00:23:27;32.33;30.60;37.04;;
66463;Laerm;56827;52.178;4.500;2023-04-03T00:23:37;32.29;30.83;33.78;;
66463;Laerm;56827;52.178;4.500;2023-04-03T00:23:48;32.05;30.63;35.01;;
66463;Laerm;56827;52.178;4.500;2023-04-03T00:23:58;31.86;30.35;33.48;;
66463;Laerm;56827;52.178;4.500;2023-04-03T00:24:08;32.55;30.81;34.63;;
66463;Laerm;56827;52.178;4.500;2023-04-03T00:24:18;33.09;30.90;35.80;;
66463;Laerm;56827;52.178;4.500;2023-04-03T00:24:29;33.10;30.90;35.01;;
66463;Laerm;56827;52.178;4.500;2023-04-03T00:24:39;32.76;30.92;35.31;;
66463;Laerm;56827;52.178;4.500;2023-04-03T00:24:49;32.54;30.80;34.49;;
66463;Laerm;56827;52.178;4.500;2023-04-03T00:24:59;33.09;31.44;34.86;;
66463;Laerm;56827;52.178;4.500;2023-04-03T00:25:10;33.22;31.23;35.70;;
66463;Laerm;56827;52.178;4.500;2023-04-03T00:25:20;32.97;31.18;35.29;;
66463;Laerm;56827;52.178;4.500;2023-04-03T00:25:30;32.71;31.03;34.78;;
66463;Laerm;56827;52.178;4.500;2023-04-03T00:25:41;33.07;31.11;35.05;;
66463;Laerm;56827;52.178;4.500;2023-04-03T00:25:51;33.10;30.69;34.77;;
66463;Laerm;56827;52.178;4.500;2023-04-03T00:26:02;33.06;31.14;35.32;;
66463;Laerm;56827;52.178;4.500;2023-04-03T00:26:12;33.34;30.78;35.49;;
66463;Laerm;56827;52.178;4.500;2023-04-03T00:26:22;33.65;30.76;36.52;;
66463;Laerm;56827;52.178;4.500;2023-04-03T00:26:33;33.75;31.41;36.67;;
66463;Laerm;56827;52.178;4.500;2023-04-03T00:26:43;33.33;31.60;35.56;;
66463;Laerm;56827;52.178;4.500;2023-04-03T00:26:53;33.99;31.79;36.47;;
66463;Laerm;56827;52.178;4.500;2023-04-03T00:27:03;33.97;31.99;36.43;;
66463;Laerm;56827;52.178;4.500;2023-04-03T00:27:13;34.38;31.92;37.75;;
66463;Laerm;56827;52.178;4.500;2023-04-03T00:27:25;33.25;31.51;35.69;;
66463;Laerm;56827;52.178;4.500;2023-04-03T00:27:36;33.62;31.44;35.58;;
66463;Laerm;56827;52.178;4.500;2023-04-03T00:27:47;33.03;31.20;35.60;;
66463;Laerm;56827;52.178;4.500;2023-04-03T00:27:58;36.41;32.25;42.61;;
66463;Laerm;56827;52.178;4.500;2023-04-03T00:28:08;33.39;31.08;36.29;;
66463;Laerm;56827;52.178;4.500;2023-04-03T00:28:19;33.82;31.57;35.93;;
66463;Laerm;56827;52.178;4.500;2023-04-03T00:28:29;34.12;31.48;37.66;;
66463;Laerm;56827;52.178;4.500;2023-04-03T00:28:39;34.32;31.63;36.57;;
66463;Laerm;56827;52.178;4.500;2023-04-03T00:28:50;34.27;31.88;37.57;;
66463;Laerm;56827;52.178;4.500;2023-04-03T00:29:00;33.84;32.03;37.90;;
66463;Laerm;56827;52.178;4.500;2023-04-03T00:29:10;34.14;31.20;38.31;;
66463;Laerm;56827;52.178;4.500;2023-04-03T00:29:20;34.20;32.17;36.90;;
66463;Laerm;56827;52.178;4.500;2023-04-03T00:29:31;34.17;32.51;36.66;;
66463;Laerm;56827;52.178;4.500;2023-04-03T00:29:41;34.32;31.73;37.23;;
66463;Laerm;56827;52.178;4.500;2023-04-03T00:29:51;34.11;31.61;39.47;;
66463;Laerm;56827;52.178;4.500;2023-04-03T00:30:02;33.75;31.95;35.56;;
66463;Laerm;56827;52.178;4.500;2023-04-03T00:30:13;33.44;31.94;35.14;;
66463;Laerm;56827;52.178;4.500;2023-04-03T00:30:24;34.13;31.65;36.76;;
66463;Laerm;56827;52.178;4.500;2023-04-03T00:30:34;35.66;32.08;46.70;;
66463;Laerm;56827;52.178;4.500;2023-04-03T00:30:45;33.47;31.59;37.11;;
66463;Laerm;56827;52.178;4.500;2023-04-03T00:30:55;32.79;31.04;34.42;;
66463;Laerm;56827;52.178;4.500;2023-04-03T00:31:05;32.68;30.95;34.79;;
66463;Laerm;56827;52.178;4.500;2023-04-03T00:31:16;33.18;31.18;34.77;;
66463;Laerm;56827;52.178;4.500;2023-04-03T00:31:26;33.25;31.12;35.34;;
66463;Laerm;56827;52.178;4.500;2023-04-03T00:31:36;33.42;31.53;35.17;;
66463;Laerm;56827;52.178;4.500;2023-04-03T00:31:46;33.67;31.50;35.70;;
66463;Laerm;56827;52.178;4.500;2023-04-03T00:31:57;34.89;32.46;38.48;;
66463;Laerm;56827;52.178;4.500;2023-04-03T00:32:07;34.80;32.56;37.44;;
66463;Laerm;56827;52.178;4.500;2023-04-03T00:32:17;33.41;31.19;36.33;;
66463;Laerm;56827;52.178;4.500;2023-04-03T00:32:27;33.82;31.46;36.75;;
66463;Laerm;56827;52.178;4.500;2023-04-03T00:32:38;33.81;32.03;35.91;;
66463;Laerm;56827;52.178;4.500;2023-04-03T00:32:48;34.06;32.19;37.61;;
66463;Laerm;56827;52.178;4.500;2023-04-03T00:32:59;33.21;30.92;39.52;;
66463;Laerm;56827;52.178;4.500;2023-04-03T00:33:11;32.71;31.31;34.14;;
66463;Laerm;56827;52.178;4.500;2023-04-03T00:33:21;33.11;31.62;34.80;;
66463;Laerm;56827;52.178;4.500;2023-04-03T00:33:32;33.49;31.22;36.56;;
66463;Laerm;56827;52.178;4.500;2023-04-03T00:33:42;34.55;31.92;36.85;;
66463;Laerm;56827;52.178;4.500;2023-04-03T00:33:52;34.37;31.97;36.49;;
66463;Laerm;56827;52.178;4.500;2023-04-03T00:34:03;34.75;32.60;37.43;;
66463;Laerm;56827;52.178;4.500;2023-04-03T00:34:13;35.68;32.96;40.89;;
66463;Laerm;56827;52.178;4.500;2023-04-03T00:34:23;35.32;33.20;38.09;;
66463;Laerm;56827;52.178;4.500;2023-04-03T00:34:33;35.97;33.58;39.84;;
66463;Laerm;56827;52.178;4.500;2023-04-03T00:34:44;34.77;31.71;37.73;;
66463;Laerm;56827;52.178;4.500;2023-04-03T00:34:54;34.41;32.38;36.52;;
66463;Laerm;56827;52.178;4.500;2023-04-03T00:35:04;33.96;31.84;36.65;;
66463;Laerm;56827;52.178;4.500;2023-04-03T00:35:15;33.53;31.36;36.17;;
66463;Laerm;56827;52.178;4.500;2023-04-03T00:35:28;34.94;32.44;38.78;;
66463;Laerm;56827;52.178;4.500;2023-04-03T00:35:38;35.64;33.03;41.69;;
66463;Laerm;56827;52.178;4.500;2023-04-03T00:35:48;38.89;33.05;50.34;;
66463;Laerm;56827;52.178;4.500;2023-04-03T00:35:59;39.66;32.46;52.56;;
66463;Laerm;56827;52.178;4.500;2023-04-03T00:36:09;34.78;32.50;38.69;;
66463;Laerm;56827;52.178;4.500;2023-04-03T00:36:20;34.82;32.35;37.41;;
66463;Laerm;56827;52.178;4.500;2023-04-03T00:36:30;34.92;32.60;37.72;;
66463;Laerm;56827;52.178;4.500;2023-04-03T00:36:40;33.85;31.84;35.50;;
66463;Laerm;56827;52.178;4.500;2023-04-03T00:36:51;33.11;31.33;34.73;;
66463;Laerm;56827;52.178;4.500;2023-04-03T00:37:01;33.02;31.35;34.97;;
66463;Laerm;56827;52.178;4.500;2023-04-03T00:37:11;33.22;31.04;35.73;;
66463;Laerm;56827;52.178;4.500;2023-04-03T00:37:22;33.05;31.03;34.86;;
66463;Laerm;56827;52.178;4.500;2023-04-03T00:37:32;33.01;30.30;35.48;;
66463;Laerm;56827;52.178;4.500;2023-04-03T00:37:42;32.66;30.56;34.37;;
66463;Laerm;56827;52.178;4.500;2023-04-03T00:37:53;33.02;31.45;34.45;;
66463;Laerm;56827;52.178;4.500;2023-04-03T00:38:05;32.97;31.43;35.18;;
66463;Laerm;56827;52.178;4.500;2023-04-03T00:38:15;32.98;31.10;34.88;;
66463;Laerm;56827;52.178;4.500;2023-04-03T00:38:25;33.29;31.35;35.52;;
66463;Laerm;56827;52.178;4.500;2023-04-03T00:38:38;33.65;31.65;37.48;;
66463;Laerm;56827;52.178;4.500;2023-04-03T00:38:48;33.18;31.17;35.42;;
66463;Laerm;56827;52.178;4.500;2023-04-03T00:38:58;33.38;31.26;35.62;;
66463;Laerm;56827;52.178;4.500;2023-04-03T00:39:09;32.84;31.35;34.84;;
66463;Laerm;56827;52.178;4.500;2023-04-03T00:39:19;32.64;31.12;34.36;;
66463;Laerm;56827;52.178;4.500;2023-04-03T00:39:29;32.57;30.84;35.69;;
66463;Laerm;56827;52.178;4.500;2023-04-03T00:39:39;33.29;31.50;35.93;;
66463;Laerm;56827;52.178;4.500;2023-04-03T00:39:50;32.89;30.95;35.57;;
66463;Laerm;56827;52.178;4.500;2023-04-03T00:40:01;32.60;31.05;34.49;;
66463;Laerm;56827;52.178;4.500;2023-04-03T00:40:13;32.50;30.63;34.91;;
66463;Laerm;56827;52.178;4.500;2023-04-03T00:40:25;33.15;31.03;34.67;;
66463;Laerm;56827;52.178;4.500;2023-04-03T00:40:36;33.27;31.17;35.90;;
66463;Laerm;56827;52.178;4.500;2023-04-03T00:40:47;32.80;30.78;35.30;;
66463;Laerm;56827;52.178;4.500;2023-04-03T00:40:58;33.35;31.57;36.29;;
66463;Laerm;56827;52.178;4.500;2023-04-03T00:41:08;32.92;30.92;34.85;;
66463;Laerm;56827;52.178;4.500;2023-04-03T00:41:18;32.95;30.80;34.49;;
66463;Laerm;56827;52.178;4.500;2023-04-03T00:41:28;32.85;31.04;34.85;;
66463;Laerm;56827;52.178;4.500;2023-04-03T00:41:39;33.49;31.20;36.82;;
66463;Laerm;56827;52.178;4.500;2023-04-03T00:41:49;34.15;31.85;37.92;;
66463;Laerm;56827;52.178;4.500;2023-04-03T00:41:59;33.10;30.92;35.72;;
66463;Laerm;56827;52.178;4.500;2023-04-03T00:42:10;33.62;31.16;35.31;;
66463;Laerm;56827;52.178;4.500;2023-04-03T00:42:21;32.87;30.54;34.75;;
66463;Laerm;56827;52.178;4.500;2023-04-03T00:42:31;32.69;30.89;34.56;;
66463;Laerm;56827;52.178;4.500;2023-04-03T00:42:41;32.33;30.71;34.53;;
66463;Laerm;56827;52.178;4.500;2023-04-03T00:42:57;32.60;30.79;40.64;;
66463;Laerm;56827;52.178;4.500;2023-04-03T00:43:11;42.18;30.90;54.29;;
66463;Laerm;56827;52.178;4.500;2023-04-03T00:43:23;32.22;30.06;38.76;;
66463;Laerm;56827;52.178;4.500;2023-04-03T00:43:34;32.67;30.72;34.90;;
66463;Laerm;56827;52.178;4.500;2023-04-03T00:43:44;32.74;31.03;34.95;;
66463;Laerm;56827;52.178;4.500;2023-04-03T00:43:55;33.08;30.85;35.28;;
66463;Laerm;56827;52.178;4.500;2023-04-03T00:44:21;32.85;30.91;34.63;;
66463;Laerm;56827;52.178;4.500;2023-04-03T00:45:37;32.96;31.47;34.75;;
66463;Laerm;56827;52.178;4.500;2023-04-03T00:45:57;32.84;30.84;35.12;;
66463;Laerm;56827;52.178;4.500;2023-04-03T00:46:07;33.01;30.69;36.06;;
66463;Laerm;56827;52.178;4.500;2023-04-03T00:46:17;32.86;30.69;35.50;;
66463;Laerm;56827;52.178;4.500;2023-04-03T00:46:28;33.05;30.91;35.35;;
66463;Laerm;56827;52.178;4.500;2023-04-03T00:46:38;33.06;31.19;35.06;;
66463;Laerm;56827;52.178;4.500;2023-04-03T00:46:48;33.96;32.00;37.00;;
66463;Laerm;56827;52.178;4.500;2023-04-03T00:46:59;33.72;31.79;36.82;;
66463;Laerm;56827;52.178;4.500;2023-04-03T00:47:13;33.18;31.11;35.85;;
66463;Laerm;56827;52.178;4.500;2023-04-03T00:47:25;32.66;31.05;34.28;;
66463;Laerm;56827;52.178;4.500;2023-04-03T00:47:36;33.23;31.08;34.92;;
66463;Laerm;56827;52.178;4.500;2023-04-03T00:47:46;33.99;32.00;35.75;;
66463;Laerm;56827;52.178;4.500;2023-04-03T00:47:57;34.06;32.01;35.96;;
66463;Laerm;56827;52.178;4.500;2023-04-03T00:48:11;34.03;32.15;36.39;;
66463;Laerm;56827;52.178;4.500;2023-04-03T00:48:36;34.02;31.30;37.47;;
66463;Laerm;56827;52.178;4.500;2023-04-03T00:48:48;33.52;30.61;40.89;;
66463;Laerm;56827;52.178;4.500;2023-04-03T00:48:59;32.86;30.38;35.96;;
66463;Laerm;56827;52.178;4.500;2023-04-03T00:49:09;33.10;30.90;35.79;;
66463;Laerm;56827;52.178;4.500;2023-04-03T00:49:20;32.46;30.38;37.78;;
66463;Laerm;56827;52.178;4.500;2023-04-03T00:49:30;32.61;30.99;34.36;;
66463;Laerm;56827;52.178;4.500;2023-04-03T00:49:41;32.34;30.39;35.02;;
66463;Laerm;56827;52.178;4.500;2023-04-03T00:49:52;32.65;30.79;35.32;;
66463;Laerm;56827;52.178;4.500;2023-04-03T00:50:03;32.38;30.51;34.40;;
66463;Laerm;56827;52.178;4.500;2023-04-03T00:50:14;33.10;30.71;37.05;;
66463;Laerm;56827;52.178;4.500;2023-04-03T00:50:24;32.82;30.91;34.48;;
66463;Laerm;56827;52.178;4.500;2023-04-03T00:50:38;33.61;31.50;35.77;;
66463;Laerm;56827;52.178;4.500;2023-04-03T00:50:49;34.38;32.10;38.04;;
66463;Laerm;56827;52.178;4.500;2023-04-03T00:51:00;34.44;32.23;36.91;;
66463;Laerm;56827;52.178;4.500;2023-04-03T00:51:13;33.75;31.67;36.20;;
66463;Laerm;56827;52.178;4.500;2023-04-03T00:51:24;33.93;31.62;35.98;;
66463;Laerm;56827;52.178;4.500;2023-04-03T00:51:35;33.02;31.09;34.68;;
66463;Laerm;56827;52.178;4.500;2023-04-03T00:51:45;32.82;30.86;35.30;;
66463;Laerm;56827;52.178;4.500;2023-04-03T00:51:56;32.69;30.81;36.59;;
66463;Laerm;56827;52.178;4.500;2023-04-03T00:52:08;32.30;30.33;34.07;;
66463;Laerm;56827;52.178;4.500;2023-04-03T00:52:21;32.45;30.79;34.16;;
66463;Laerm;56827;52.178;4.500;2023-04-03T00:52:33;32.20;29.65;34.28;;
66463;Laerm;56827;52.178;4.500;2023-04-03T00:52:43;31.95;30.46;33.71;;
66463;Laerm;56827;52.178;4.500;2023-04-03T00:52:56;31.44;29.72;32.84;;
66463;Laerm;56827;52.178;4.500;2023-04-03T00:53:08;32.37;30.57;34.26;;
66463;Laerm;56827;52.178;4.500;2023-04-03T00:53:31;32.57;30.84;35.46;;
66463;Laerm;56827;52.178;4.500;2023-04-03T00:54:04;32.33;30.64;34.44;;
66463;Laerm;56827;52.178;4.500;2023-04-03T00:54:12;32.70;30.78;34.79;;
66463;Laerm;56827;52.178;4.500;2023-04-03T00:54:23;32.42;30.72;34.27;;
66463;Laerm;56827;52.178;4.500;2023-04-03T00:54:33;33.40;31.23;35.41;;
66463;Laerm;56827;52.178;4.500;2023-04-03T00:54:46;33.56;31.27;35.73;;
66463;Laerm;56827;52.178;4.500;2023-04-03T00:55:00;34.39;31.73;38.88;;
66463;Laerm;56827;52.178;4.500;2023-04-03T00:55:11;34.46;30.82;41.16;;
66463;Laerm;56827;52.178;4.500;2023-04-03T00:55:24;37.36;31.89;45.26;;
66463;Laerm;56827;52.178;4.500;2023-04-03T00:55:35;35.79;31.55;42.80;;
66463;Laerm;56827;52.178;4.500;2023-04-03T00:55:47;33.72;31.40;35.81;;
66463;Laerm;56827;52.178;4.500;2023-04-03T00:55:58;33.40;31.15;35.30;;
66463;Laerm;56827;52.178;4.500;2023-04-03T00:56:10;33.53;31.59;35.57;;
66463;Laerm;56827;52.178;4.500;2023-04-03T00:56:23;33.74;31.52;35.77;;
66463;Laerm;56827;52.178;4.500;2023-04-03T00:56:34;34.12;31.85;36.22;;
66463;Laerm;56827;52.178;4.500;2023-04-03T00:56:46;33.72;32.01;36.17;;
66463;Laerm;56827;52.178;4.500;2023-04-03T00:56:56;33.91;32.18;35.93;;
66463;Laerm;56827;52.178;4.500;2023-04-03T00:57:07;33.35;31.45;37.12;;
66463;Laerm;56827;52.178;4.500;2023-04-03T00:57:18;33.12;31.35;35.53;;
66463;Laerm;56827;52.178;4.500;2023-04-03T00:57:29;33.28;31.12;36.47;;
66463;Laerm;56827;52.178;4.500;2023-04-03T00:57:40;33.02;31.14;35.84;;
66463;Laerm;56827;52.178;4.500;2023-04-03T00:57:51;32.94;31.38;35.08;;
66463;Laerm;56827;52.178;4.500;2023-04-03T00:58:02;33.05;30.86;34.99;;
66463;Laerm;56827;52.178;4.500;2023-04-03T00:58:12;32.69;31.02;34.17;;
66463;Laerm;56827;52.178;4.500;2023-04-03T00:58:34;32.36;30.80;33.71;;
66463;Laerm;56827;52.178;4.500;2023-04-03T00:58:48;32.57;30.74;34.16;;
66463;Laerm;56827;52.178;4.500;2023-04-03T00:59:07;32.84;31.10;35.02;;
66463;Laerm;56827;52.178;4.500;2023-04-03T00:59:19;32.90;30.77;35.71;;
66463;Laerm;56827;52.178;4.500;2023-04-03T00:59:34;32.52;30.84;37.41;;
66463;Laerm;56827;52.178;4.500;2023-04-03T00:59:48;32.47;30.59;34.72;;
66463;Laerm;56827;52.178;4.500;2023-04-03T01:00:03;32.73;31.06;35.98;;
66463;Laerm;56827;52.178;4.500;2023-04-03T01:00:15;33.30;31.25;36.23;;
66463;Laerm;56827;52.178;4.500;2023-04-03T01:00:26;33.57;31.65;36.64;;
66463;Laerm;56827;52.178;4.500;2023-04-03T01:00:37;32.72;31.12;35.80;;
66463;Laerm;56827;52.178;4.500;2023-04-03T01:00:50;32.90;31.43;35.19;;
66463;Laerm;56827;52.178;4.500;2023-04-03T01:01:07;32.97;30.63;35.96;;
66463;Laerm;56827;52.178;4.500;2023-04-03T01:01:19;32.78;30.63;34.59;;
66463;Laerm;56827;52.178;4.500;2023-04-03T01:01:31;32.52;30.50;34.31;;
66463;Laerm;56827;52.178;4.500;2023-04-03T01:01:41;32.57;30.83;35.02;;
66463;Laerm;56827;52.178;4.500;2023-04-03T01:01:55;37.79;30.15;50.81;;
66463;Laerm;56827;52.178;4.500;2023-04-03T01:02:06;39.17;30.91;50.30;;
66463;Laerm;56827;52.178;4.500;2023-04-03T01:02:16;33.46;31.95;35.23;;
66463;Laerm;56827;52.178;4.500;2023-04-03T01:02:26;32.70;30.85;34.43;;
66463;Laerm;56827;52.178;4.500;2023-04-03T01:02:37;32.34;30.56;34.17;;